Goliah — WDD5908 — position and weather

sailwx.info

Track history (hours):
 
Tides and Currents Weather Stations Pressure Air Temp Water Temp Dewpoint Dewpoint Depression Visibility Wind Speed Wind Dir Waves Ship Positions

Goliah

Owner: Crowley Marine Services, Seattle, WA. More information available from US FCC via Universal Licensing System and Coast Guard Vessel Documentation Center.

Last reported at 2015-Aug-02 05:27 UTC. Time now 2015-Aug-02 06:18 UTC.
Position N 33°44' W 118°17'.

Length 33 m; draft 4.8 m.

Type: Tug. MMSI: 366898250.

Date/timePositionNaut miles runAvg speedWind from/ knotsBaromVisibWave heightAir tempDewpointWater temp
2015-Aug-02 05:27N 33°44' W 118°17'0 0.0
2015-Aug-02 01:28N 33°45' W 118°17'1 1.5
2015-Aug-02 00:33N 33°46' W 118°16'3 3.0
2015-Aug-01 23:33N 33°45' W 118°13'1 1.5
2015-Aug-01 22:33N 33°46' W 118°13'1 0.8
2015-Aug-01 21:33N 33°45' W 118°13'2 1.6
2015-Aug-01 20:33N 33°44' W 118°13'1 0.8
2015-Aug-01 19:32N 33°44' W 118°12'4 1.9
2015-Aug-01 17:26N 33°44' W 118°17'0 0.0
2015-Aug-01 15:13N 33°44' W 118°17'0 0.0
2015-Aug-01 14:33N 33°44' W 118°17'1 0.8
2015-Aug-01 13:10N 33°44' W 118°16'2 3.6
2015-Aug-01 12:30N 33°42' W 118°14'4 3.1
2015-Aug-01 11:21N 33°45' W 118°16'1 1.5
2015-Aug-01 10:32N 33°46' W 118°16'0 0.1
2015-Aug-01 09:33N 33°46' W 118°17'2 1.6
2015-Aug-01 08:32N 33°44' W 118°17'0 0.0
2015-Aug-01 07:20N 33°44' W 118°17'0 0.0
2015-Aug-01 06:32N 33°44' W 118°17'0 0.0
2015-Aug-01 05:30N 33°44' W 118°17'0 0.0
2015-Aug-01 04:33N 33°44' W 118°17'0 0.0
2015-Aug-01 03:30N 33°44' W 118°17'5 5.2
2015-Aug-01 02:33N 33°44' W 118°11'1 0.7
2015-Aug-01 01:33N 33°44' W 118°11'4 4.1
2015-Aug-01 00:28N 33°44' W 118°17'0 0.4
2015-Jul-31 23:33N 33°44' W 118°16'4 3.6
2015-Jul-31 22:33N 33°44' W 118°12'2 2.4
2015-Jul-31 21:33N 33°45' W 118°14'2 2.4
2015-Jul-31 20:33N 33°44' W 118°12'0 0.4
2015-Jul-31 19:28N 33°44' W 118°12'1 1.1
2015-Jul-31 18:33N 33°44' W 118°13'3 2.6
2015-Jul-31 17:33N 33°43' W 118°16'2 0.3
2015-Jul-31 12:32N 33°44' W 118°17'1 1.1
2015-Jul-31 11:33N 33°44' W 118°16'1 1.1
2015-Jul-31 10:33N 33°44' W 118°17'2 0.4
2015-Jul-31 04:23N 33°43' W 118°15'1 0.8
2015-Jul-31 03:12N 33°43' W 118°16'2 2.6
2015-Jul-31 02:33N 33°44' W 118°17'0 0.0
2015-Jul-31 01:25N 33°44' W 118°17'0 0.0
2015-Jul-31 00:13N 33°44' W 118°17'3 4.4
2015-Jul-30 23:32N 33°45' W 118°13'1 0.8
2015-Jul-30 22:30N 33°45' W 118°12'4 0.7
2015-Jul-30 17:05N 33°44' W 118°17'1 1.8
2015-Jul-30 16:33N 33°45' W 118°17'2 1.3
2015-Jul-30 15:26N 33°44' W 118°16'3 1.3
2015-Jul-30 13:05N 33°41' W 118°14'3 4.6
2015-Jul-30 12:32N 33°44' W 118°16'1 0.5
2015-Jul-30 11:14N 33°43' W 118°16'1 0.5
2015-Jul-30 09:14N 33°44' W 118°17'0 0.0
2015-Jul-30 05:30N 33°44' W 118°17'0 0.0
2015-Jul-30 04:26N 33°44' W 118°17'0 0.0
2015-Jul-30 03:31N 33°44' W 118°17'3 2.6
2015-Jul-30 02:30N 33°45' W 118°14'1 0.6
2015-Jul-30 01:32N 33°45' W 118°14'1 0.6
2015-Jul-30 00:33N 33°45' W 118°14'3 2.6
2015-Jul-29 23:32N 33°44' W 118°17'0 0.0
2015-Jul-29 22:32N 33°44' W 118°17'0 0.0
2015-Jul-29 21:33N 33°44' W 118°17'0 0.1
2015-Jul-29 19:19N 33°44' W 118°17'1 1.9
2015-Jul-29 18:33N 33°46' W 118°16'3 2.1
2015-Jul-29 17:09N 33°43' W 118°15'2 3.2
2015-Jul-29 16:27N 33°44' W 118°17'3 1.6
2015-Jul-29 14:33N 33°45' W 118°13'0 0.2
2015-Jul-29 13:33N 33°45' W 118°13'2 1.7
2015-Jul-29 12:22N 33°44' W 118°12'1 0.9
2015-Jul-29 11:28N 33°44' W 118°13'2 1.7
2015-Jul-29 10:33N 33°45' W 118°13'0 0.1
2015-Jul-29 09:33N 33°45' W 118°13'3 3.4
2015-Jul-29 08:33N 33°43' W 118°16'1 0.3
2015-Jul-29 03:29N 33°44' W 118°17'0 0.0
2015-Jul-29 02:33N 33°44' W 118°17'0 0.0
2015-Jul-29 01:21N 33°44' W 118°17'0 0.0
2015-Jul-29 00:33N 33°44' W 118°17'0 0.0
2015-Jul-28 23:33N 33°44' W 118°17'1 1.0
2015-Jul-28 22:34N 33°44' W 118°16'1 0.5
2015-Jul-28 21:32N 33°43' W 118°16'1 1.3
2015-Jul-28 20:32N 33°44' W 118°17'0 0.0
2015-Jul-28 19:33N 33°44' W 118°17'0 0.0
2015-Jul-28 18:33N 33°44' W 118°17'0 0.0
2015-Jul-28 17:33N 33°44' W 118°17'3 3.2
2015-Jul-28 16:34N 33°46' W 118°13'0 0.1
2015-Jul-28 15:33N 33°46' W 118°13'3 1.0
2015-Jul-28 12:15N 33°43' W 118°16'0 0.1
2015-Jul-28 11:07N 33°43' W 118°16'1 1.8
2015-Jul-28 10:32N 33°44' W 118°15'1 1.0
2015-Jul-28 09:31N 33°43' W 118°16'1 0.3
2015-Jul-28 05:33N 33°44' W 118°17'0 0.0
2015-Jul-28 04:33N 33°44' W 118°17'1 1.0
2015-Jul-28 03:33N 33°45' W 118°16'3 2.4
2015-Jul-28 02:28N 33°43' W 118°15'0 0.1
2015-Jul-28 01:32N 33°43' W 118°15'2 1.9
2015-Jul-28 00:28N 33°44' W 118°17'0 0.0
2015-Jul-27 23:32N 33°44' W 118°17'0 0.0
2015-Jul-27 22:33N 33°44' W 118°17'1 1.1
2015-Jul-27 21:32N 33°44' W 118°16'3 0.3
2015-Jul-27 12:23N 33°45' W 118°13'2 2.9
2015-Jul-27 11:33N 33°44' W 118°15'1 1.0
2015-Jul-27 10:33N 33°43' W 118°16'1 0.5
2015-Jul-27 08:10N 33°44' W 118°17'3 0.5
2015-Jul-27 02:28N 33°43' W 118°14'3 2.3
2015-Jul-27 01:13N 33°44' W 118°10'1 1.7
2015-Jul-27 00:25N 33°44' W 118°08'5 5.4
2015-Jul-26 23:32N 33°43' W 118°14'3 2.5
2015-Jul-26 22:31N 33°44' W 118°17'0 0.0
2015-Jul-26 21:32N 33°44' W 118°17'0 0.0
2015-Jul-26 20:21N 33°44' W 118°17'0 0.0
2015-Jul-26 19:18N 33°44' W 118°17'3 4.2
2015-Jul-26 18:33N 33°45' W 118°13'1 1.1
2015-Jul-26 17:33N 33°46' W 118°13'3 2.3
2015-Jul-26 16:10N 33°44' W 118°17'1 0.2
2015-Jul-26 13:24N 33°44' W 118°16'3 3.8
2015-Jul-26 12:33N 33°46' W 118°13'0 0.4
2015-Jul-26 11:33N 33°46' W 118°13'1 1.0
2015-Jul-26 10:25N 33°45' W 118°13'3 3.3
2015-Jul-26 09:34N 33°45' W 118°16'0 0.1
2015-Jul-26 08:33N 33°45' W 118°16'1 0.5
2015-Jul-26 07:33N 33°44' W 118°17'0 0.0
2015-Jul-26 06:33N 33°44' W 118°17'0 0.0
2015-Jul-26 05:16N 33°44' W 118°17'0 0.0
2015-Jul-26 04:19N 33°44' W 118°17'0 0.0
2015-Jul-26 03:32N 33°44' W 118°17'0 0.0
2015-Jul-26 02:33N 33°44' W 118°17'0 0.0
2015-Jul-26 01:33N 33°44' W 118°17'0 0.0
2015-Jul-26 00:33N 33°44' W 118°17'1 1.4
2015-Jul-25 23:33N 33°44' W 118°15'0 0.3
2015-Jul-25 22:34N 33°44' W 118°15'2 1.7
2015-Jul-25 21:33N 33°45' W 118°14'2 1.8
2015-Jul-25 20:33N 33°44' W 118°12'1 1.0
2015-Jul-25 19:33N 33°43' W 118°13'3 3.1
2015-Jul-25 18:32N 33°44' W 118°17'0 0.0
2015-Jul-25 17:33N 33°44' W 118°17'0 0.0
2015-Jul-25 16:33N 33°44' W 118°17'0 0.0
2015-Jul-25 13:33N 33°44' W 118°17'1 0.8
2015-Jul-25 12:33N 33°45' W 118°16'1 1.4
2015-Jul-25 11:34N 33°44' W 118°16'2 2.2
2015-Jul-25 10:33N 33°46' W 118°17'2 1.5
2015-Jul-25 09:33N 33°44' W 118°17'0 0.0
2015-Jul-25 08:24N 33°44' W 118°17'0 0.0
2015-Jul-25 07:33N 33°44' W 118°17'0 0.0
2015-Jul-25 06:18N 33°44' W 118°17'0 0.0
2015-Jul-25 05:33N 33°44' W 118°17'0 0.0
2015-Jul-25 04:33N 33°44' W 118°17'0 0.0
2015-Jul-25 03:33N 33°44' W 118°17'0 0.0
2015-Jul-25 02:33N 33°44' W 118°17'0 0.0
2015-Jul-25 01:33N 33°44' W 118°17'0 0.0
2015-Jul-25 00:34N 33°44' W 118°17'0 0.0
2015-Jul-24 23:32N 33°44' W 118°17'3 2.6
2015-Jul-24 22:32N 33°43' W 118°14'3 2.4
2015-Jul-24 21:29N 33°44' W 118°17'1 0.9
2015-Jul-24 20:33N 33°45' W 118°16'2 0.2
2015-Jul-24 12:28N 33°43' W 118°16'1 0.8
2015-Jul-24 11:33N 33°44' W 118°16'0 0.2
2015-Jul-24 10:33N 33°44' W 118°16'0 0.0
2015-Jul-24 09:33N 33°44' W 118°16'1 1.3
2015-Jul-24 08:30N 33°45' W 118°16'1 1.5
2015-Jul-24 07:33N 33°46' W 118°15'2 0.9
2015-Jul-24 05:23N 33°44' W 118°17'0 0.0
2015-Jul-24 04:32N 33°44' W 118°17'3 3.1
2015-Jul-24 03:32N 33°45' W 118°13'1 0.7
2015-Jul-24 02:33N 33°45' W 118°13'1 0.9
2015-Jul-24 01:32N 33°44' W 118°12'4 2.7
2015-Jul-24 00:11N 33°44' W 118°17'0 0.0
2015-Jul-23 23:28N 33°44' W 118°17'0 0.0
2015-Jul-23 22:12N 33°44' W 118°17'0 0.0
2015-Jul-23 21:25N 33°44' W 118°17'0 0.0
2015-Jul-23 20:29N 33°44' W 118°17'0 0.0
2015-Jul-23 17:30N 33°44' W 118°17'2 2.4
2015-Jul-23 16:33N 33°46' W 118°15'2 1.0
2015-Jul-23 14:09N 33°44' W 118°17'0 0.1
2015-Jul-23 13:08N 33°44' W 118°17'3 2.1
2015-Jul-23 11:34N 33°46' W 118°13'1 0.9
2015-Jul-23 10:33N 33°45' W 118°13'3 3.0
2015-Jul-23 09:29N 33°44' W 118°17'0 0.0
2015-Jul-23 08:22N 33°44' W 118°17'0 0.0
2015-Jul-23 07:33N 33°44' W 118°17'0 0.0
2015-Jul-23 06:33N 33°44' W 118°17'0 0.0
2015-Jul-23 05:33N 33°44' W 118°17'  
Track history (hours):
 
Tides and Currents Weather Stations Pressure Air Temp Water Temp Dewpoint Dewpoint Depression Visibility Wind Speed Wind Dir Waves Ship Positions

Goliah

Owner: Crowley Marine Services, Seattle, WA. More information available from US FCC via Universal Licensing System and Coast Guard Vessel Documentation Center.

Last reported at 2015-Aug-02 05:27 UTC. Time now 2015-Aug-02 06:18 UTC.
Position N 33°44' W 118°17'.

Length 33 m; draft 4.8 m.

Type: Tug. MMSI: 366898250.

Date/timePositionNaut miles runAvg speedWind from/ knotsBaromVisibWave heightAir tempDewpointWater temp
2015-Aug-02 05:27N 33°44' W 118°17'0 0.0
2015-Aug-02 01:28N 33°45' W 118°17'1 1.5
2015-Aug-02 00:33N 33°46' W 118°16'3 3.0
2015-Aug-01 23:33N 33°45' W 118°13'1 1.5
2015-Aug-01 22:33N 33°46' W 118°13'1 0.8
2015-Aug-01 21:33N 33°45' W 118°13'2 1.6
2015-Aug-01 20:33N 33°44' W 118°13'1 0.8
2015-Aug-01 19:32N 33°44' W 118°12'4 1.9
2015-Aug-01 17:26N 33°44' W 118°17'0 0.0
2015-Aug-01 15:13N 33°44' W 118°17'0 0.0
2015-Aug-01 14:33N 33°44' W 118°17'1 0.8
2015-Aug-01 13:10N 33°44' W 118°16'2 3.6
2015-Aug-01 12:30N 33°42' W 118°14'4 3.1
2015-Aug-01 11:21N 33°45' W 118°16'1 1.5
2015-Aug-01 10:32N 33°46' W 118°16'0 0.1
2015-Aug-01 09:33N 33°46' W 118°17'2 1.6
2015-Aug-01 08:32N 33°44' W 118°17'0 0.0
2015-Aug-01 07:20N 33°44' W 118°17'0 0.0
2015-Aug-01 06:32N 33°44' W 118°17'0 0.0
2015-Aug-01 05:30N 33°44' W 118°17'0 0.0
2015-Aug-01 04:33N 33°44' W 118°17'0 0.0
2015-Aug-01 03:30N 33°44' W 118°17'5 5.2
2015-Aug-01 02:33N 33°44' W 118°11'1 0.7
2015-Aug-01 01:33N 33°44' W 118°11'4 4.1
2015-Aug-01 00:28N 33°44' W 118°17'0 0.4
2015-Jul-31 23:33N 33°44' W 118°16'4 3.6
2015-Jul-31 22:33N 33°44' W 118°12'2 2.4
2015-Jul-31 21:33N 33°45' W 118°14'2 2.4
2015-Jul-31 20:33N 33°44' W 118°12'0 0.4
2015-Jul-31 19:28N 33°44' W 118°12'1 1.1
2015-Jul-31 18:33N 33°44' W 118°13'3 2.6
2015-Jul-31 17:33N 33°43' W 118°16'2 0.3
2015-Jul-31 12:32N 33°44' W 118°17'1 1.1
2015-Jul-31 11:33N 33°44' W 118°16'1 1.1
2015-Jul-31 10:33N 33°44' W 118°17'2 0.4
2015-Jul-31 04:23N 33°43' W 118°15'1 0.8
2015-Jul-31 03:12N 33°43' W 118°16'2 2.6
2015-Jul-31 02:33N 33°44' W 118°17'0 0.0
2015-Jul-31 01:25N 33°44' W 118°17'0 0.0
2015-Jul-31 00:13N 33°44' W 118°17'3 4.4
2015-Jul-30 23:32N 33°45' W 118°13'1 0.8
2015-Jul-30 22:30N 33°45' W 118°12'4 0.7
2015-Jul-30 17:05N 33°44' W 118°17'1 1.8
2015-Jul-30 16:33N 33°45' W 118°17'2 1.3
2015-Jul-30 15:26N 33°44' W 118°16'3 1.3
2015-Jul-30 13:05N 33°41' W 118°14'3 4.6
2015-Jul-30 12:32N 33°44' W 118°16'1 0.5
2015-Jul-30 11:14N 33°43' W 118°16'1 0.5
2015-Jul-30 09:14N 33°44' W 118°17'0 0.0
2015-Jul-30 05:30N 33°44' W 118°17'0 0.0
2015-Jul-30 04:26N 33°44' W 118°17'0 0.0
2015-Jul-30 03:31N 33°44' W 118°17'3 2.6
2015-Jul-30 02:30N 33°45' W 118°14'1 0.6
2015-Jul-30 01:32N 33°45' W 118°14'1 0.6
2015-Jul-30 00:33N 33°45' W 118°14'3 2.6
2015-Jul-29 23:32N 33°44' W 118°17'0 0.0
2015-Jul-29 22:32N 33°44' W 118°17'0 0.0
2015-Jul-29 21:33N 33°44' W 118°17'0 0.1
2015-Jul-29 19:19N 33°44' W 118°17'1 1.9
2015-Jul-29 18:33N 33°46' W 118°16'3 2.1
2015-Jul-29 17:09N 33°43' W 118°15'2 3.2
2015-Jul-29 16:27N 33°44' W 118°17'3 1.6
2015-Jul-29 14:33N 33°45' W 118°13'0 0.2
2015-Jul-29 13:33N 33°45' W 118°13'2 1.7
2015-Jul-29 12:22N 33°44' W 118°12'1 0.9
2015-Jul-29 11:28N 33°44' W 118°13'2 1.7
2015-Jul-29 10:33N 33°45' W 118°13'0 0.1
2015-Jul-29 09:33N 33°45' W 118°13'3 3.4
2015-Jul-29 08:33N 33°43' W 118°16'1 0.3
2015-Jul-29 03:29N 33°44' W 118°17'0 0.0
2015-Jul-29 02:33N 33°44' W 118°17'0 0.0
2015-Jul-29 01:21N 33°44' W 118°17'0 0.0
2015-Jul-29 00:33N 33°44' W 118°17'0 0.0
2015-Jul-28 23:33N 33°44' W 118°17'1 1.0
2015-Jul-28 22:34N 33°44' W 118°16'1 0.5
2015-Jul-28 21:32N 33°43' W 118°16'1 1.3
2015-Jul-28 20:32N 33°44' W 118°17'0 0.0
2015-Jul-28 19:33N 33°44' W 118°17'0 0.0
2015-Jul-28 18:33N 33°44' W 118°17'0 0.0
2015-Jul-28 17:33N 33°44' W 118°17'3 3.2
2015-Jul-28 16:34N 33°46' W 118°13'0 0.1
2015-Jul-28 15:33N 33°46' W 118°13'3 1.0
2015-Jul-28 12:15N 33°43' W 118°16'0 0.1
2015-Jul-28 11:07N 33°43' W 118°16'1 1.8
2015-Jul-28 10:32N 33°44' W 118°15'1 1.0
2015-Jul-28 09:31N 33°43' W 118°16'1 0.3
2015-Jul-28 05:33N 33°44' W 118°17'0 0.0
2015-Jul-28 04:33N 33°44' W 118°17'1 1.0
2015-Jul-28 03:33N 33°45' W 118°16'3 2.4
2015-Jul-28 02:28N 33°43' W 118°15'0 0.1
2015-Jul-28 01:32N 33°43' W 118°15'2 1.9
2015-Jul-28 00:28N 33°44' W 118°17'0 0.0
2015-Jul-27 23:32N 33°44' W 118°17'0 0.0
2015-Jul-27 22:33N 33°44' W 118°17'1 1.1
2015-Jul-27 21:32N 33°44' W 118°16'3 0.3
2015-Jul-27 12:23N 33°45' W 118°13'2 2.9
2015-Jul-27 11:33N 33°44' W 118°15'1 1.0
2015-Jul-27 10:33N 33°43' W 118°16'1 0.5
2015-Jul-27 08:10N 33°44' W 118°17'3 0.5
2015-Jul-27 02:28N 33°43' W 118°14'3 2.3
2015-Jul-27 01:13N 33°44' W 118°10'1 1.7
2015-Jul-27 00:25N 33°44' W 118°08'5 5.4
2015-Jul-26 23:32N 33°43' W 118°14'3 2.5
2015-Jul-26 22:31N 33°44' W 118°17'0 0.0
2015-Jul-26 21:32N 33°44' W 118°17'0 0.0
2015-Jul-26 20:21N 33°44' W 118°17'0 0.0
2015-Jul-26 19:18N 33°44' W 118°17'3 4.2
2015-Jul-26 18:33N 33°45' W 118°13'1 1.1
2015-Jul-26 17:33N 33°46' W 118°13'3 2.3
2015-Jul-26 16:10N 33°44' W 118°17'1 0.2
2015-Jul-26 13:24N 33°44' W 118°16'3 3.8
2015-Jul-26 12:33N 33°46' W 118°13'0 0.4
2015-Jul-26 11:33N 33°46' W 118°13'1 1.0
2015-Jul-26 10:25N 33°45' W 118°13'3 3.3
2015-Jul-26 09:34N 33°45' W 118°16'0 0.1
2015-Jul-26 08:33N 33°45' W 118°16'1 0.5
2015-Jul-26 07:33N 33°44' W 118°17'0 0.0
2015-Jul-26 06:33N 33°44' W 118°17'0 0.0
2015-Jul-26 05:16N 33°44' W 118°17'0 0.0
2015-Jul-26 04:19N 33°44' W 118°17'0 0.0
2015-Jul-26 03:32N 33°44' W 118°17'0 0.0
2015-Jul-26 02:33N 33°44' W 118°17'0 0.0
2015-Jul-26 01:33N 33°44' W 118°17'0 0.0
2015-Jul-26 00:33N 33°44' W 118°17'1 1.4
2015-Jul-25 23:33N 33°44' W 118°15'0 0.3
2015-Jul-25 22:34N 33°44' W 118°15'2 1.7
2015-Jul-25 21:33N 33°45' W 118°14'2 1.8
2015-Jul-25 20:33N 33°44' W 118°12'1 1.0
2015-Jul-25 19:33N 33°43' W 118°13'3 3.1
2015-Jul-25 18:32N 33°44' W 118°17'0 0.0
2015-Jul-25 17:33N 33°44' W 118°17'0 0.0
2015-Jul-25 16:33N 33°44' W 118°17'0 0.0
2015-Jul-25 13:33N 33°44' W 118°17'1 0.8
2015-Jul-25 12:33N 33°45' W 118°16'1 1.4
2015-Jul-25 11:34N 33°44' W 118°16'2 2.2
2015-Jul-25 10:33N 33°46' W 118°17'2 1.5
2015-Jul-25 09:33N 33°44' W 118°17'0 0.0
2015-Jul-25 08:24N 33°44' W 118°17'0 0.0
2015-Jul-25 07:33N 33°44' W 118°17'0 0.0
2015-Jul-25 06:18N 33°44' W 118°17'0 0.0
2015-Jul-25 05:33N 33°44' W 118°17'0 0.0
2015-Jul-25 04:33N 33°44' W 118°17'0 0.0
2015-Jul-25 03:33N 33°44' W 118°17'0 0.0
2015-Jul-25 02:33N 33°44' W 118°17'0 0.0
2015-Jul-25 01:33N 33°44' W 118°17'0 0.0
2015-Jul-25 00:34N 33°44' W 118°17'0 0.0
2015-Jul-24 23:32N 33°44' W 118°17'3 2.6
2015-Jul-24 22:32N 33°43' W 118°14'3 2.4
2015-Jul-24 21:29N 33°44' W 118°17'1 0.9
2015-Jul-24 20:33N 33°45' W 118°16'2 0.2
2015-Jul-24 12:28N 33°43' W 118°16'1 0.8
2015-Jul-24 11:33N 33°44' W 118°16'0 0.2
2015-Jul-24 10:33N 33°44' W 118°16'0 0.0
2015-Jul-24 09:33N 33°44' W 118°16'1 1.3
2015-Jul-24 08:30N 33°45' W 118°16'1 1.5
2015-Jul-24 07:33N 33°46' W 118°15'2 0.9
2015-Jul-24 05:23N 33°44' W 118°17'0 0.0
2015-Jul-24 04:32N 33°44' W 118°17'3 3.1
2015-Jul-24 03:32N 33°45' W 118°13'1 0.7
2015-Jul-24 02:33N 33°45' W 118°13'1 0.9
2015-Jul-24 01:32N 33°44' W 118°12'4 2.7
2015-Jul-24 00:11N 33°44' W 118°17'0 0.0
2015-Jul-23 23:28N 33°44' W 118°17'0 0.0
2015-Jul-23 22:12N 33°44' W 118°17'0 0.0
2015-Jul-23 21:25N 33°44' W 118°17'0 0.0
2015-Jul-23 20:29N 33°44' W 118°17'0 0.0
2015-Jul-23 17:30N 33°44' W 118°17'2 2.4
2015-Jul-23 16:33N 33°46' W 118°15'2 1.0
2015-Jul-23 14:09N 33°44' W 118°17'0 0.1
2015-Jul-23 13:08N 33°44' W 118°17'3 2.1
2015-Jul-23 11:34N 33°46' W 118°13'1 0.9
2015-Jul-23 10:33N 33°45' W 118°13'3 3.0
2015-Jul-23 09:29N 33°44' W 118°17'0 0.0
2015-Jul-23 08:22N 33°44' W 118°17'0 0.0
2015-Jul-23 07:33N 33°44' W 118°17'0 0.0
2015-Jul-23 06:33N 33°44' W 118°17'0 0.0
2015-Jul-23 05:33N 33°44' W 118°17'  

Dump ship's entire track history